Terminal Aerodrome Forecast
Issued by NWS Wakefield, VA

Home | Current Version | Previous Version | Text Only | Print | Product List | Glossary On
Versions: 1 2 3 4 5 6 7 8 9 10 11 12 13 14 15 16 17 18 19 20 21 22 23 24 25 26 27 28 29 30 31 32 33 34 35
633
FTUS41 KAKQ 250422 AAB
TAFRIC
TAF AMD
KRIC 250422Z 2504/2524 04007KT 3SM BR OVC003
     FM250600 07006KT 5SM BR OVC006
     FM250800 14007KT P6SM OVC015
     FM251100 20009KT P6SM BKN080 WS020/22040KT
     FM251500 22014G22KT P6SM BKN070=

USA.gov is the U.S. government's official web portal to all federal, state and local government web resources and services.